sensor_id;sensor_type;location;lat;lon;timestamp;temperature;humidity
18260;DHT22;9256;52.236;5.712;2024-02-26T00:00:44;4.60;99.90
18260;DHT22;9256;52.236;5.712;2024-02-26T00:03:12;4.60;99.90
18260;DHT22;9256;52.236;5.712;2024-02-26T00:05:39;4.50;99.90
18260;DHT22;9256;52.236;5.712;2024-02-26T00:08:07;4.50;99.90
18260;DHT22;9256;52.236;5.712;2024-02-26T00:10:35;4.50;99.90
18260;DHT22;9256;52.236;5.712;2024-02-26T00:13:02;4.50;99.90
18260;DHT22;9256;52.236;5.712;2024-02-26T00:15:28;4.40;99.90
18260;DHT22;9256;52.236;5.712;2024-02-26T00:17:57;4.40;99.90
18260;DHT22;9256;52.236;5.712;2024-02-26T00:20:24;4.40;99.90
18260;DHT22;9256;52.236;5.712;2024-02-26T00:22:51;4.40;99.90
18260;DHT22;9256;52.236;5.712;2024-02-26T00:25:18;4.30;99.90
18260;DHT22;9256;52.236;5.712;2024-02-26T00:27:45;4.30;99.90
18260;DHT22;9256;52.236;5.712;2024-02-26T00:30:12;4.30;99.90
18260;DHT22;9256;52.236;5.712;2024-02-26T00:32:39;4.20;99.90
18260;DHT22;9256;52.236;5.712;2024-02-26T00:35:08;4.30;99.90
18260;DHT22;9256;52.236;5.712;2024-02-26T00:37:36;4.20;99.90
18260;DHT22;9256;52.236;5.712;2024-02-26T00:40:03;4.10;99.90
18260;DHT22;9256;52.236;5.712;2024-02-26T00:42:30;4.10;99.90
18260;DHT22;9256;52.236;5.712;2024-02-26T00:44:57;4.10;99.90
18260;DHT22;9256;52.236;5.712;2024-02-26T00:47:25;4.10;99.90
18260;DHT22;9256;52.236;5.712;2024-02-26T00:49:52;4.00;99.90
18260;DHT22;9256;52.236;5.712;2024-02-26T00:52:21;3.90;99.90
18260;DHT22;9256;52.236;5.712;2024-02-26T00:54:48;4.00;99.90
18260;DHT22;9256;52.236;5.712;2024-02-26T00:57:15;3.90;99.90
18260;DHT22;9256;52.236;5.712;2024-02-26T00:59:42;3.90;99.90
18260;DHT22;9256;52.236;5.712;2024-02-26T01:02:08;3.90;99.90
18260;DHT22;9256;52.236;5.712;2024-02-26T01:04:35;3.90;99.90
18260;DHT22;9256;52.236;5.712;2024-02-26T01:07:03;3.80;99.90
18260;DHT22;9256;52.236;5.712;2024-02-26T01:09:31;3.80;99.90
18260;DHT22;9256;52.236;5.712;2024-02-26T01:11:58;3.80;99.90
18260;DHT22;9256;52.236;5.712;2024-02-26T01:14:25;3.80;99.90
18260;DHT22;9256;52.236;5.712;2024-02-26T01:16:51;3.80;99.90
18260;DHT22;9256;52.236;5.712;2024-02-26T01:19:18;3.80;99.90
18260;DHT22;9256;52.236;5.712;2024-02-26T01:21:45;3.80;99.90
18260;DHT22;9256;52.236;5.712;2024-02-26T01:24:12;3.80;99.90
18260;DHT22;9256;52.236;5.712;2024-02-26T01:26:41;3.80;99.90
18260;DHT22;9256;52.236;5.712;2024-02-26T01:29:08;3.80;99.90
18260;DHT22;9256;52.236;5.712;2024-02-26T01:31:34;3.80;99.90
18260;DHT22;9256;52.236;5.712;2024-02-26T01:34:01;3.80;99.90
18260;DHT22;9256;52.236;5.712;2024-02-26T01:36:28;3.80;99.90
18260;DHT22;9256;52.236;5.712;2024-02-26T01:38:55;3.80;99.90
18260;DHT22;9256;52.236;5.712;2024-02-26T01:41:22;3.80;99.90
18260;DHT22;9256;52.236;5.712;2024-02-26T01:43:50;3.80;99.90
18260;DHT22;9256;52.236;5.712;2024-02-26T01:46:17;3.80;99.90
18260;DHT22;9256;52.236;5.712;2024-02-26T01:48:46;3.90;99.90
18260;DHT22;9256;52.236;5.712;2024-02-26T01:51:16;3.90;99.90
18260;DHT22;9256;52.236;5.712;2024-02-26T01:53:44;3.90;99.90
18260;DHT22;9256;52.236;5.712;2024-02-26T01:56:11;3.90;99.90
18260;DHT22;9256;52.236;5.712;2024-02-26T01:58:38;3.90;99.90
18260;DHT22;9256;52.236;5.712;2024-02-26T02:01:07;3.90;99.90
18260;DHT22;9256;52.236;5.712;2024-02-26T02:03:36;3.90;99.90
18260;DHT22;9256;52.236;5.712;2024-02-26T02:06:03;3.90;99.90
18260;DHT22;9256;52.236;5.712;2024-02-26T02:08:31;3.90;99.90
18260;DHT22;9256;52.236;5.712;2024-02-26T02:11:00;3.90;99.90
18260;DHT22;9256;52.236;5.712;2024-02-26T02:13:27;3.90;99.90
18260;DHT22;9256;52.236;5.712;2024-02-26T02:15:54;3.90;99.90
18260;DHT22;9256;52.236;5.712;2024-02-26T02:18:23;4.00;99.90
18260;DHT22;9256;52.236;5.712;2024-02-26T02:20:51;4.00;99.90
18260;DHT22;9256;52.236;5.712;2024-02-26T02:23:21;4.00;99.90
18260;DHT22;9256;52.236;5.712;2024-02-26T02:25:48;4.00;99.90
18260;DHT22;9256;52.236;5.712;2024-02-26T02:28:15;4.00;99.90
18260;DHT22;9256;52.236;5.712;2024-02-26T02:30:42;4.00;99.90
18260;DHT22;9256;52.236;5.712;2024-02-26T02:33:09;4.00;99.90
18260;DHT22;9256;52.236;5.712;2024-02-26T02:35:37;4.00;99.90
18260;DHT22;9256;52.236;5.712;2024-02-26T02:38:06;4.00;99.90
18260;DHT22;9256;52.236;5.712;2024-02-26T02:40:33;4.10;99.90
18260;DHT22;9256;52.236;5.712;2024-02-26T02:43:00;4.00;99.90
18260;DHT22;9256;52.236;5.712;2024-02-26T02:45:27;4.10;99.90
18260;DHT22;9256;52.236;5.712;2024-02-26T02:47:54;4.10;99.90
18260;DHT22;9256;52.236;5.712;2024-02-26T02:50:20;4.00;99.90
18260;DHT22;9256;52.236;5.712;2024-02-26T02:52:47;4.00;99.90
18260;DHT22;9256;52.236;5.712;2024-02-26T02:55:17;4.00;99.90
18260;DHT22;9256;52.236;5.712;2024-02-26T02:57:44;4.10;99.90
18260;DHT22;9256;52.236;5.712;2024-02-26T03:00:12;4.10;99.90
18260;DHT22;9256;52.236;5.712;2024-02-26T03:02:39;4.10;99.90
18260;DHT22;9256;52.236;5.712;2024-02-26T03:05:06;4.10;99.90
18260;DHT22;9256;52.236;5.712;2024-02-26T03:07:33;4.20;99.90
18260;DHT22;9256;52.236;5.712;2024-02-26T03:10:00;4.20;99.90
18260;DHT22;9256;52.236;5.712;2024-02-26T03:12:30;4.10;99.90
18260;DHT22;9256;52.236;5.712;2024-02-26T03:14:57;4.10;99.90
18260;DHT22;9256;52.236;5.712;2024-02-26T03:17:24;4.20;99.90
18260;DHT22;9256;52.236;5.712;2024-02-26T03:19:51;4.20;99.90
18260;DHT22;9256;52.236;5.712;2024-02-26T03:22:19;4.20;99.90
18260;DHT22;9256;52.236;5.712;2024-02-26T03:24:46;4.10;99.90
18260;DHT22;9256;52.236;5.712;2024-02-26T03:27:13;4.20;99.90
18260;DHT22;9256;52.236;5.712;2024-02-26T03:29:42;4.20;99.90
18260;DHT22;9256;52.236;5.712;2024-02-26T03:32:09;4.20;99.90
18260;DHT22;9256;52.236;5.712;2024-02-26T03:34:36;4.20;99.90
18260;DHT22;9256;52.236;5.712;2024-02-26T03:37:04;4.20;99.90
18260;DHT22;9256;52.236;5.712;2024-02-26T03:39:31;4.20;99.90
18260;DHT22;9256;52.236;5.712;2024-02-26T03:41:58;4.30;99.90
18260;DHT22;9256;52.236;5.712;2024-02-26T03:44:25;4.20;99.90
18260;DHT22;9256;52.236;5.712;2024-02-26T03:46:53;4.20;99.90
18260;DHT22;9256;52.236;5.712;2024-02-26T03:49:21;4.30;99.90
18260;DHT22;9256;52.236;5.712;2024-02-26T03:51:48;4.30;99.90
18260;DHT22;9256;52.236;5.712;2024-02-26T03:54:15;4.30;99.90
18260;DHT22;9256;52.236;5.712;2024-02-26T03:56:42;4.30;99.90
18260;DHT22;9256;52.236;5.712;2024-02-26T03:59:09;4.30;99.90
18260;DHT22;9256;52.236;5.712;2024-02-26T04:01:36;4.20;99.90
18260;DHT22;9256;52.236;5.712;2024-02-26T04:04:04;4.20;99.90
18260;DHT22;9256;52.236;5.712;2024-02-26T04:06:31;4.20;99.90
18260;DHT22;9256;52.236;5.712;2024-02-26T04:08:58;4.30;99.90
18260;DHT22;9256;52.236;5.712;2024-02-26T04:11:25;4.20;99.90
18260;DHT22;9256;52.236;5.712;2024-02-26T04:13:52;4.30;99.90
18260;DHT22;9256;52.236;5.712;2024-02-26T04:16:18;4.20;99.90
18260;DHT22;9256;52.236;5.712;2024-02-26T04:18:45;4.20;99.90
18260;DHT22;9256;52.236;5.712;2024-02-26T04:21:14;4.20;99.90
18260;DHT22;9256;52.236;5.712;2024-02-26T04:23:41;4.20;99.90
18260;DHT22;9256;52.236;5.712;2024-02-26T04:26:08;4.20;99.90
18260;DHT22;9256;52.236;5.712;2024-02-26T04:28:35;4.20;99.90
18260;DHT22;9256;52.236;5.712;2024-02-26T04:31:01;4.20;99.90
18260;DHT22;9256;52.236;5.712;2024-02-26T04:33:28;4.20;99.90
18260;DHT22;9256;52.236;5.712;2024-02-26T04:35:55;4.20;99.90
18260;DHT22;9256;52.236;5.712;2024-02-26T04:38:23;4.30;99.90
18260;DHT22;9256;52.236;5.712;2024-02-26T04:40:50;4.30;99.90
18260;DHT22;9256;52.236;5.712;2024-02-26T04:43:17;4.20;99.90
18260;DHT22;9256;52.236;5.712;2024-02-26T04:45:45;4.20;99.90
18260;DHT22;9256;52.236;5.712;2024-02-26T04:48:11;4.20;99.90
18260;DHT22;9256;52.236;5.712;2024-02-26T04:50:38;4.30;99.90
18260;DHT22;9256;52.236;5.712;2024-02-26T04:53:05;4.30;99.90
18260;DHT22;9256;52.236;5.712;2024-02-26T04:55:33;4.20;99.90
18260;DHT22;9256;52.236;5.712;2024-02-26T04:58:00;4.30;99.90
18260;DHT22;9256;52.236;5.712;2024-02-26T05:00:27;4.30;99.90
18260;DHT22;9256;52.236;5.712;2024-02-26T05:02:54;4.30;99.90
18260;DHT22;9256;52.236;5.712;2024-02-26T05:05:21;4.30;99.90
18260;DHT22;9256;52.236;5.712;2024-02-26T05:07:48;4.30;99.90
18260;DHT22;9256;52.236;5.712;2024-02-26T05:10:15;4.30;99.90
18260;DHT22;9256;52.236;5.712;2024-02-26T05:12:44;4.30;99.90
18260;DHT22;9256;52.236;5.712;2024-02-26T05:15:11;4.30;99.90
18260;DHT22;9256;52.236;5.712;2024-02-26T05:17:46;4.30;99.90
18260;DHT22;9256;52.236;5.712;2024-02-26T05:20:16;4.30;99.90
18260;DHT22;9256;52.236;5.712;2024-02-26T05:22:43;4.30;99.90
18260;DHT22;9256;52.236;5.712;2024-02-26T05:25:09;4.30;99.90
18260;DHT22;9256;52.236;5.712;2024-02-26T05:27:36;4.30;99.90
18260;DHT22;9256;52.236;5.712;2024-02-26T05:30:06;4.30;99.90
18260;DHT22;9256;52.236;5.712;2024-02-26T05:32:33;4.30;99.90
18260;DHT22;9256;52.236;5.712;2024-02-26T05:35:00;4.30;99.90
18260;DHT22;9256;52.236;5.712;2024-02-26T05:37:30;4.30;99.90
18260;DHT22;9256;52.236;5.712;2024-02-26T05:39:57;4.30;99.90
18260;DHT22;9256;52.236;5.712;2024-02-26T05:42:24;4.30;99.90
18260;DHT22;9256;52.236;5.712;2024-02-26T05:44:51;4.30;99.90
18260;DHT22;9256;52.236;5.712;2024-02-26T05:47:19;4.30;99.90
18260;DHT22;9256;52.236;5.712;2024-02-26T05:49:49;4.30;99.90
18260;DHT22;9256;52.236;5.712;2024-02-26T05:52:15;4.30;99.90
18260;DHT22;9256;52.236;5.712;2024-02-26T05:54:42;4.30;99.90
18260;DHT22;9256;52.236;5.712;2024-02-26T05:57:09;4.30;99.90
18260;DHT22;9256;52.236;5.712;2024-02-26T05:59:36;4.30;99.90
18260;DHT22;9256;52.236;5.712;2024-02-26T06:02:04;4.40;99.90
18260;DHT22;9256;52.236;5.712;2024-02-26T06:04:32;4.40;99.90
18260;DHT22;9256;52.236;5.712;2024-02-26T06:06:59;4.40;99.90
18260;DHT22;9256;52.236;5.712;2024-02-26T06:09:26;4.40;99.90
18260;DHT22;9256;52.236;5.712;2024-02-26T06:11:53;4.40;99.90
18260;DHT22;9256;52.236;5.712;2024-02-26T06:14:20;4.40;99.90
18260;DHT22;9256;52.236;5.712;2024-02-26T06:16:47;4.40;99.90
18260;DHT22;9256;52.236;5.712;2024-02-26T06:19:14;4.40;99.90
18260;DHT22;9256;52.236;5.712;2024-02-26T06:21:42;4.40;99.90
18260;DHT22;9256;52.236;5.712;2024-02-26T06:24:09;4.40;99.90
18260;DHT22;9256;52.236;5.712;2024-02-26T06:26:36;4.40;99.90
18260;DHT22;9256;52.236;5.712;2024-02-26T06:29:02;4.40;99.90
18260;DHT22;9256;52.236;5.712;2024-02-26T06:31:29;4.50;99.90
18260;DHT22;9256;52.236;5.712;2024-02-26T06:33:56;4.50;99.90
18260;DHT22;9256;52.236;5.712;2024-02-26T06:36:23;4.50;99.90
18260;DHT22;9256;52.236;5.712;2024-02-26T06:38:52;4.50;99.90
18260;DHT22;9256;52.236;5.712;2024-02-26T06:41:20;4.50;99.90
18260;DHT22;9256;52.236;5.712;2024-02-26T06:43:52;4.60;99.90
18260;DHT22;9256;52.236;5.712;2024-02-26T06:46:18;4.50;99.90
18260;DHT22;9256;52.236;5.712;2024-02-26T06:48:47;4.50;99.90
18260;DHT22;9256;52.236;5.712;2024-02-26T06:51:14;4.60;99.90
18260;DHT22;9256;52.236;5.712;2024-02-26T06:53:41;4.60;99.90
18260;DHT22;9256;52.236;5.712;2024-02-26T06:56:09;4.50;99.90
18260;DHT22;9256;52.236;5.712;2024-02-26T06:58:36;4.60;99.90
18260;DHT22;9256;52.236;5.712;2024-02-26T07:01:03;4.60;99.90
18260;DHT22;9256;52.236;5.712;2024-02-26T07:03:30;4.60;99.90
18260;DHT22;9256;52.236;5.712;2024-02-26T07:05:58;4.60;99.90
18260;DHT22;9256;52.236;5.712;2024-02-26T07:08:25;4.60;99.90
18260;DHT22;9256;52.236;5.712;2024-02-26T07:10:52;4.60;99.90
18260;DHT22;9256;52.236;5.712;2024-02-26T07:13:20;4.60;99.90
18260;DHT22;9256;52.236;5.712;2024-02-26T07:15:47;4.60;99.90
18260;DHT22;9256;52.236;5.712;2024-02-26T07:18:14;4.60;99.90
18260;DHT22;9256;52.236;5.712;2024-02-26T07:20:41;4.60;99.90
18260;DHT22;9256;52.236;5.712;2024-02-26T07:23:08;4.60;99.90
18260;DHT22;9256;52.236;5.712;2024-02-26T07:25:35;4.60;99.90
18260;DHT22;9256;52.236;5.712;2024-02-26T07:28:02;4.60;99.90
18260;DHT22;9256;52.236;5.712;2024-02-26T07:30:30;4.60;99.90
18260;DHT22;9256;52.236;5.712;2024-02-26T07:32:57;4.60;99.90
18260;DHT22;9256;52.236;5.712;2024-02-26T07:35:24;4.60;99.90
18260;DHT22;9256;52.236;5.712;2024-02-26T07:37:56;4.60;99.90
18260;DHT22;9256;52.236;5.712;2024-02-26T07:40:23;4.60;99.90
18260;DHT22;9256;52.236;5.712;2024-02-26T07:42:49;4.60;99.90
18260;DHT22;9256;52.236;5.712;2024-02-26T07:45:16;4.70;99.90
18260;DHT22;9256;52.236;5.712;2024-02-26T07:47:46;4.70;99.90
18260;DHT22;9256;52.236;5.712;2024-02-26T07:50:13;4.70;99.90
18260;DHT22;9256;52.236;5.712;2024-02-26T07:52:40;4.70;99.90
18260;DHT22;9256;52.236;5.712;2024-02-26T07:55:08;4.70;99.90
18260;DHT22;9256;52.236;5.712;2024-02-26T07:57:35;4.70;99.90
18260;DHT22;9256;52.236;5.712;2024-02-26T08:00:02;4.70;99.90
18260;DHT22;9256;52.236;5.712;2024-02-26T08:02:33;4.70;99.90
18260;DHT22;9256;52.236;5.712;2024-02-26T08:05:02;4.80;99.90
18260;DHT22;9256;52.236;5.712;2024-02-26T08:07:29;4.80;99.90
18260;DHT22;9256;52.236;5.712;2024-02-26T08:09:56;4.80;99.90
18260;DHT22;9256;52.236;5.712;2024-02-26T08:12:21;4.80;99.90
18260;DHT22;9256;52.236;5.712;2024-02-26T08:14:48;4.80;99.90
18260;DHT22;9256;52.236;5.712;2024-02-26T08:17:15;4.80;99.90
18260;DHT22;9256;52.236;5.712;2024-02-26T08:19:42;4.80;99.90
18260;DHT22;9256;52.236;5.712;2024-02-26T08:22:11;4.70;99.90
18260;DHT22;9256;52.236;5.712;2024-02-26T08:24:41;4.80;99.90
18260;DHT22;9256;52.236;5.712;2024-02-26T08:27:08;4.80;99.90
18260;DHT22;9256;52.236;5.712;2024-02-26T08:29:35;4.80;99.90
18260;DHT22;9256;52.236;5.712;2024-02-26T08:32:03;4.80;99.90
18260;DHT22;9256;52.236;5.712;2024-02-26T08:34:31;4.80;99.90
18260;DHT22;9256;52.236;5.712;2024-02-26T08:36:58;4.80;99.90
18260;DHT22;9256;52.236;5.712;2024-02-26T08:39:26;4.70;99.90
18260;DHT22;9256;52.236;5.712;2024-02-26T08:41:53;4.80;99.90
18260;DHT22;9256;52.236;5.712;2024-02-26T08:44:20;4.80;99.90
18260;DHT22;9256;52.236;5.712;2024-02-26T08:46:47;4.80;99.90
18260;DHT22;9256;52.236;5.712;2024-02-26T08:49:14;4.80;99.90
18260;DHT22;9256;52.236;5.712;2024-02-26T08:51:42;4.80;99.90
18260;DHT22;9256;52.236;5.712;2024-02-26T08:54:09;4.90;99.90
18260;DHT22;9256;52.236;5.712;2024-02-26T08:56:37;4.90;99.90
18260;DHT22;9256;52.236;5.712;2024-02-26T08:59:04;4.90;99.90
18260;DHT22;9256;52.236;5.712;2024-02-26T09:01:33;4.90;99.90
18260;DHT22;9256;52.236;5.712;2024-02-26T09:04:00;4.90;99.90
18260;DHT22;9256;52.236;5.712;2024-02-26T09:06:28;4.90;99.90
18260;DHT22;9256;52.236;5.712;2024-02-26T09:08:55;4.90;99.90
18260;DHT22;9256;52.236;5.712;2024-02-26T09:11:22;4.90;99.90
18260;DHT22;9256;52.236;5.712;2024-02-26T09:13:50;4.90;99.90
18260;DHT22;9256;52.236;5.712;2024-02-26T09:16:17;4.90;99.90
18260;DHT22;9256;52.236;5.712;2024-02-26T09:18:44;4.90;99.90
18260;DHT22;9256;52.236;5.712;2024-02-26T09:21:11;5.00;99.90
18260;DHT22;9256;52.236;5.712;2024-02-26T09:23:41;4.90;99.90
18260;DHT22;9256;52.236;5.712;2024-02-26T09:26:11;4.90;99.90
18260;DHT22;9256;52.236;5.712;2024-02-26T09:28:38;5.00;99.90
18260;DHT22;9256;52.236;5.712;2024-02-26T09:31:06;5.00;99.90
18260;DHT22;9256;52.236;5.712;2024-02-26T09:33:33;5.00;99.90
18260;DHT22;9256;52.236;5.712;2024-02-26T09:36:00;5.10;99.90
18260;DHT22;9256;52.236;5.712;2024-02-26T09:38:27;5.00;99.90
18260;DHT22;9256;52.236;5.712;2024-02-26T09:40:56;5.10;99.90
18260;DHT22;9256;52.236;5.712;2024-02-26T09:43:26;5.00;99.90
18260;DHT22;9256;52.236;5.712;2024-02-26T09:45:55;5.00;99.90
18260;DHT22;9256;52.236;5.712;2024-02-26T09:48:24;5.00;99.90
18260;DHT22;9256;52.236;5.712;2024-02-26T09:50:52;5.10;99.90
18260;DHT22;9256;52.236;5.712;2024-02-26T09:53:21;5.10;99.90
18260;DHT22;9256;52.236;5.712;2024-02-26T09:55:48;5.10;99.90
18260;DHT22;9256;52.236;5.712;2024-02-26T09:58:16;5.20;99.90
18260;DHT22;9256;52.236;5.712;2024-02-26T10:00:47;5.10;99.90
18260;DHT22;9256;52.236;5.712;2024-02-26T10:03:18;5.10;99.90
18260;DHT22;9256;52.236;5.712;2024-02-26T10:05:50;5.10;99.90
18260;DHT22;9256;52.236;5.712;2024-02-26T10:08:21;5.10;99.90
18260;DHT22;9256;52.236;5.712;2024-02-26T10:10:51;5.10;99.90
18260;DHT22;9256;52.236;5.712;2024-02-26T10:13:18;5.20;99.90
18260;DHT22;9256;52.236;5.712;2024-02-26T10:15:46;5.10;99.90
18260;DHT22;9256;52.236;5.712;2024-02-26T10:18:15;5.30;99.90
18260;DHT22;9256;52.236;5.712;2024-02-26T10:20:55;5.30;99.90
18260;DHT22;9256;52.236;5.712;2024-02-26T10:23:25;5.30;99.90
18260;DHT22;9256;52.236;5.712;2024-02-26T10:25:53;5.40;99.90
18260;DHT22;9256;52.236;5.712;2024-02-26T10:28:24;5.30;99.90
18260;DHT22;9256;52.236;5.712;2024-02-26T10:30:52;5.30;99.90
18260;DHT22;9256;52.236;5.712;2024-02-26T10:33:19;5.30;99.90
18260;DHT22;9256;52.236;5.712;2024-02-26T10:35:46;5.30;99.90
18260;DHT22;9256;52.236;5.712;2024-02-26T10:38:15;5.30;99.90
18260;DHT22;9256;52.236;5.712;2024-02-26T10:40:49;5.30;99.90
18260;DHT22;9256;52.236;5.712;2024-02-26T10:43:16;5.30;99.90
18260;DHT22;9256;52.236;5.712;2024-02-26T10:45:44;5.30;99.90
18260;DHT22;9256;52.236;5.712;2024-02-26T10:48:14;5.30;99.90
18260;DHT22;9256;52.236;5.712;2024-02-26T10:50:43;5.40;99.90
18260;DHT22;9256;52.236;5.712;2024-02-26T10:53:15;5.40;99.90
18260;DHT22;9256;52.236;5.712;2024-02-26T10:55:45;5.40;99.90
18260;DHT22;9256;52.236;5.712;2024-02-26T10:58:14;5.40;99.90
18260;DHT22;9256;52.236;5.712;2024-02-26T11:00:43;5.40;99.90
18260;DHT22;9256;52.236;5.712;2024-02-26T11:03:14;5.40;99.90
18260;DHT22;9256;52.236;5.712;2024-02-26T11:05:43;5.40;99.90
18260;DHT22;9256;52.236;5.712;2024-02-26T11:08:11;5.40;99.90
18260;DHT22;9256;52.236;5.712;2024-02-26T11:10:40;5.50;99.90
18260;DHT22;9256;52.236;5.712;2024-02-26T11:13:10;5.40;99.90
18260;DHT22;9256;52.236;5.712;2024-02-26T11:15:39;5.40;99.90
18260;DHT22;9256;52.236;5.712;2024-02-26T11:18:07;5.40;99.90
18260;DHT22;9256;52.236;5.712;2024-02-26T11:20:38;5.40;99.90
18260;DHT22;9256;52.236;5.712;2024-02-26T11:23:07;5.40;99.90
18260;DHT22;9256;52.236;5.712;2024-02-26T11:25:34;5.40;99.90
18260;DHT22;9256;52.236;5.712;2024-02-26T11:28:06;5.40;99.90
18260;DHT22;9256;52.236;5.712;2024-02-26T11:30:37;5.40;99.90
18260;DHT22;9256;52.236;5.712;2024-02-26T11:33:07;5.40;99.90
18260;DHT22;9256;52.236;5.712;2024-02-26T11:35:36;5.40;99.90
18260;DHT22;9256;52.236;5.712;2024-02-26T11:38:03;5.40;99.90
18260;DHT22;9256;52.236;5.712;2024-02-26T11:40:33;5.50;99.90
18260;DHT22;9256;52.236;5.712;2024-02-26T11:43:00;5.50;99.90
18260;DHT22;9256;52.236;5.712;2024-02-26T11:45:50;5.50;99.90
18260;DHT22;9256;52.236;5.712;2024-02-26T11:48:22;5.60;99.90
18260;DHT22;9256;52.236;5.712;2024-02-26T11:50:50;5.60;99.90
18260;DHT22;9256;52.236;5.712;2024-02-26T11:53:22;5.60;99.90
18260;DHT22;9256;52.236;5.712;2024-02-26T11:56:17;5.50;99.90
18260;DHT22;9256;52.236;5.712;2024-02-26T11:58:47;5.50;99.90
18260;DHT22;9256;52.236;5.712;2024-02-26T12:01:39;5.50;99.90
18260;DHT22;9256;52.236;5.712;2024-02-26T12:04:07;5.50;99.90
18260;DHT22;9256;52.236;5.712;2024-02-26T12:06:47;5.50;99.90
18260;DHT22;9256;52.236;5.712;2024-02-26T12:09:33;5.50;99.90
18260;DHT22;9256;52.236;5.712;2024-02-26T12:12:01;5.50;99.90
18260;DHT22;9256;52.236;5.712;2024-02-26T12:14:28;5.40;99.90
18260;DHT22;9256;52.236;5.712;2024-02-26T12:16:57;5.50;99.90
18260;DHT22;9256;52.236;5.712;2024-02-26T12:19:24;5.40;99.90
18260;DHT22;9256;52.236;5.712;2024-02-26T12:21:52;5.40;99.90
18260;DHT22;9256;52.236;5.712;2024-02-26T12:24:20;5.50;99.90
18260;DHT22;9256;52.236;5.712;2024-02-26T12:26:47;5.40;99.90
18260;DHT22;9256;52.236;5.712;2024-02-26T12:29:14;5.50;99.90
18260;DHT22;9256;52.236;5.712;2024-02-26T12:31:42;5.50;99.90
18260;DHT22;9256;52.236;5.712;2024-02-26T12:34:11;5.50;99.90
18260;DHT22;9256;52.236;5.712;2024-02-26T12:36:39;5.60;99.90
18260;DHT22;9256;52.236;5.712;2024-02-26T12:39:06;5.70;99.90
18260;DHT22;9256;52.236;5.712;2024-02-26T12:41:38;5.60;99.90
18260;DHT22;9256;52.236;5.712;2024-02-26T12:44:05;5.60;99.90
18260;DHT22;9256;52.236;5.712;2024-02-26T12:46:33;5.70;99.90
18260;DHT22;9256;52.236;5.712;2024-02-26T12:49:00;5.60;99.90
18260;DHT22;9256;52.236;5.712;2024-02-26T12:51:29;5.60;99.90
18260;DHT22;9256;52.236;5.712;2024-02-26T12:53:57;5.70;99.90
18260;DHT22;9256;52.236;5.712;2024-02-26T12:56:26;5.70;99.90
18260;DHT22;9256;52.236;5.712;2024-02-26T12:58:55;5.70;99.90
18260;DHT22;9256;52.236;5.712;2024-02-26T13:01:24;5.60;99.90
18260;DHT22;9256;52.236;5.712;2024-02-26T13:03:53;5.70;99.90
18260;DHT22;9256;52.236;5.712;2024-02-26T13:06:21;5.60;99.90
18260;DHT22;9256;52.236;5.712;2024-02-26T13:08:55;5.70;99.90
18260;DHT22;9256;52.236;5.712;2024-02-26T13:11:23;5.70;99.90
18260;DHT22;9256;52.236;5.712;2024-02-26T13:13:50;5.60;99.90
18260;DHT22;9256;52.236;5.712;2024-02-26T13:16:18;5.70;99.90
18260;DHT22;9256;52.236;5.712;2024-02-26T13:18:45;5.70;99.90
18260;DHT22;9256;52.236;5.712;2024-02-26T13:21:15;5.70;99.90
18260;DHT22;9256;52.236;5.712;2024-02-26T13:23:43;5.60;99.90
18260;DHT22;9256;52.236;5.712;2024-02-26T13:26:13;5.60;99.90
18260;DHT22;9256;52.236;5.712;2024-02-26T13:28:40;5.70;99.90
18260;DHT22;9256;52.236;5.712;2024-02-26T13:31:08;5.60;99.90
18260;DHT22;9256;52.236;5.712;2024-02-26T13:33:35;5.70;99.90
18260;DHT22;9256;52.236;5.712;2024-02-26T13:36:04;5.70;99.90
18260;DHT22;9256;52.236;5.712;2024-02-26T13:38:31;5.70;99.90
18260;DHT22;9256;52.236;5.712;2024-02-26T13:40:58;5.70;99.90
18260;DHT22;9256;52.236;5.712;2024-02-26T13:43:27;5.80;99.90
18260;DHT22;9256;52.236;5.712;2024-02-26T13:45:54;5.80;99.90
18260;DHT22;9256;52.236;5.712;2024-02-26T13:48:21;5.80;99.90
18260;DHT22;9256;52.236;5.712;2024-02-26T13:50:49;5.80;99.90
18260;DHT22;9256;52.236;5.712;2024-02-26T13:53:16;5.80;99.90
18260;DHT22;9256;52.236;5.712;2024-02-26T13:55:43;5.90;99.90
18260;DHT22;9256;52.236;5.712;2024-02-26T13:58:12;5.90;99.90
18260;DHT22;9256;52.236;5.712;2024-02-26T14:00:41;5.90;99.90
18260;DHT22;9256;52.236;5.712;2024-02-26T14:03:08;5.90;99.90
18260;DHT22;9256;52.236;5.712;2024-02-26T14:05:35;5.90;99.90
18260;DHT22;9256;52.236;5.712;2024-02-26T14:08:03;5.90;99.90
18260;DHT22;9256;52.236;5.712;2024-02-26T14:10:30;5.90;99.90
18260;DHT22;9256;52.236;5.712;2024-02-26T14:12:57;5.90;99.90
18260;DHT22;9256;52.236;5.712;2024-02-26T14:15:24;5.80;99.90
18260;DHT22;9256;52.236;5.712;2024-02-26T14:17:53;5.90;99.90
18260;DHT22;9256;52.236;5.712;2024-02-26T14:20:22;5.90;99.90
18260;DHT22;9256;52.236;5.712;2024-02-26T14:22:49;5.80;99.90
18260;DHT22;9256;52.236;5.712;2024-02-26T14:25:16;5.80;99.90
18260;DHT22;9256;52.236;5.712;2024-02-26T14:27:43;5.90;99.90
18260;DHT22;9256;52.236;5.712;2024-02-26T14:30:11;6.00;99.90
18260;DHT22;9256;52.236;5.712;2024-02-26T14:32:38;5.90;99.90
18260;DHT22;9256;52.236;5.712;2024-02-26T14:35:08;5.90;99.90
18260;DHT22;9256;52.236;5.712;2024-02-26T14:37:35;6.00;99.90
18260;DHT22;9256;52.236;5.712;2024-02-26T14:40:03;5.90;99.90
18260;DHT22;9256;52.236;5.712;2024-02-26T14:42:31;6.00;99.90
18260;DHT22;9256;52.236;5.712;2024-02-26T14:44:57;5.90;99.90
18260;DHT22;9256;52.236;5.712;2024-02-26T14:47:25;5.90;99.90
18260;DHT22;9256;52.236;5.712;2024-02-26T14:49:52;5.90;99.90
18260;DHT22;9256;52.236;5.712;2024-02-26T14:52:20;5.90;99.90
18260;DHT22;9256;52.236;5.712;2024-02-26T14:54:47;5.90;99.90
18260;DHT22;9256;52.236;5.712;2024-02-26T14:57:14;5.90;99.90
18260;DHT22;9256;52.236;5.712;2024-02-26T14:59:41;5.90;99.90
18260;DHT22;9256;52.236;5.712;2024-02-26T15:02:09;5.90;99.90
18260;DHT22;9256;52.236;5.712;2024-02-26T15:04:36;6.00;99.90
18260;DHT22;9256;52.236;5.712;2024-02-26T15:07:04;5.90;99.90
18260;DHT22;9256;52.236;5.712;2024-02-26T15:09:32;5.90;99.90
18260;DHT22;9256;52.236;5.712;2024-02-26T15:12:00;5.90;99.90
18260;DHT22;9256;52.236;5.712;2024-02-26T15:14:28;5.90;99.90
18260;DHT22;9256;52.236;5.712;2024-02-26T15:16:55;5.90;99.90
18260;DHT22;9256;52.236;5.712;2024-02-26T15:19:22;5.90;99.90
18260;DHT22;9256;52.236;5.712;2024-02-26T15:21:49;5.90;99.90
18260;DHT22;9256;52.236;5.712;2024-02-26T15:24:16;5.90;99.90
18260;DHT22;9256;52.236;5.712;2024-02-26T15:26:44;5.90;99.90
18260;DHT22;9256;52.236;5.712;2024-02-26T15:29:11;5.90;99.90
18260;DHT22;9256;52.236;5.712;2024-02-26T15:31:39;5.90;99.90
18260;DHT22;9256;52.236;5.712;2024-02-26T15:34:05;5.90;99.90
18260;DHT22;9256;52.236;5.712;2024-02-26T15:36:34;5.90;99.90
18260;DHT22;9256;52.236;5.712;2024-02-26T15:39:01;5.90;99.90
18260;DHT22;9256;52.236;5.712;2024-02-26T15:41:28;5.90;99.90
18260;DHT22;9256;52.236;5.712;2024-02-26T15:43:57;5.80;99.90
18260;DHT22;9256;52.236;5.712;2024-02-26T15:46:25;5.80;99.90
18260;DHT22;9256;52.236;5.712;2024-02-26T15:48:53;5.80;99.90
18260;DHT22;9256;52.236;5.712;2024-02-26T15:51:21;5.80;99.90
18260;DHT22;9256;52.236;5.712;2024-02-26T15:53:49;5.80;99.90
18260;DHT22;9256;52.236;5.712;2024-02-26T15:56:17;5.70;99.90
18260;DHT22;9256;52.236;5.712;2024-02-26T15:58:49;5.70;99.90
18260;DHT22;9256;52.236;5.712;2024-02-26T16:01:17;5.80;99.90
18260;DHT22;9256;52.236;5.712;2024-02-26T16:03:44;5.80;99.90
18260;DHT22;9256;52.236;5.712;2024-02-26T16:06:18;5.70;99.90